sensor_id;sensor_type;location;lat;lon;timestamp;pressure;altitude;pressure_sealevel;temperature
67758;BMP180;54562;47.620;18.786;2022-10-23T00:00:49;98915.00;;;9.28
67758;BMP180;54562;47.620;18.786;2022-10-23T00:04:00;98917.80;;;9.24
67758;BMP180;54562;47.620;18.786;2022-10-23T00:07:09;98918.80;;;9.28
67758;BMP180;54562;47.620;18.786;2022-10-23T00:10:18;98925.40;;;9.30
67758;BMP180;54562;47.620;18.786;2022-10-23T00:13:27;98931.20;;;9.30
67758;BMP180;54562;47.620;18.786;2022-10-23T00:16:35;98929.40;;;9.30
67758;BMP180;54562;47.620;18.786;2022-10-23T00:19:43;98936.20;;;9.30
67758;BMP180;54562;47.620;18.786;2022-10-23T00:22:52;98932.80;;;9.22
67758;BMP180;54562;47.620;18.786;2022-10-23T00:26:00;98931.20;;;9.20
67758;BMP180;54562;47.620;18.786;2022-10-23T00:29:09;98928.60;;;9.20
67758;BMP180;54562;47.620;18.786;2022-10-23T00:32:17;98939.60;;;9.20
67758;BMP180;54562;47.620;18.786;2022-10-23T00:35:26;98946.80;;;9.10
67758;BMP180;54562;47.620;18.786;2022-10-23T00:38:34;98943.20;;;9.10
67758;BMP180;54562;47.620;18.786;2022-10-23T00:41:42;98946.20;;;9.10
67758;BMP180;54562;47.620;18.786;2022-10-23T00:45:24;98946.60;;;9.10
67758;BMP180;54562;47.620;18.786;2022-10-23T00:48:33;98954.00;;;9.00
67758;BMP180;54562;47.620;18.786;2022-10-23T00:51:45;98956.20;;;9.00
67758;BMP180;54562;47.620;18.786;2022-10-23T00:54:55;98960.20;;;9.00
67758;BMP180;54562;47.620;18.786;2022-10-23T00:58:03;98967.00;;;9.00
67758;BMP180;54562;47.620;18.786;2022-10-23T01:01:21;98967.80;;;9.00
67758;BMP180;54562;47.620;18.786;2022-10-23T01:04:30;98964.80;;;9.00
67758;BMP180;54562;47.620;18.786;2022-10-23T01:07:48;98971.80;;;9.00
67758;BMP180;54562;47.620;18.786;2022-10-23T01:14:14;98973.20;;;9.00
67758;BMP180;54562;47.620;18.786;2022-10-23T01:17:32;98978.20;;;9.00
67758;BMP180;54562;47.620;18.786;2022-10-23T01:20:52;98969.60;;;9.00
67758;BMP180;54562;47.620;18.786;2022-10-23T01:24:15;98972.00;;;9.00
67758;BMP180;54562;47.620;18.786;2022-10-23T01:27:29;98972.00;;;9.00
67758;BMP180;54562;47.620;18.786;2022-10-23T01:30:42;98969.40;;;9.00
67758;BMP180;54562;47.620;18.786;2022-10-23T01:33:58;98973.60;;;9.00
67758;BMP180;54562;47.620;18.786;2022-10-23T01:37:12;98969.20;;;9.00
67758;BMP180;54562;47.620;18.786;2022-10-23T01:40:25;98969.40;;;9.00
67758;BMP180;54562;47.620;18.786;2022-10-23T01:43:44;98966.40;;;8.90
67758;BMP180;54562;47.620;18.786;2022-10-23T01:50:08;98967.40;;;8.90
67758;BMP180;54562;47.620;18.786;2022-10-23T01:53:18;98971.00;;;8.90
67758;BMP180;54562;47.620;18.786;2022-10-23T01:56:32;98970.40;;;8.90
67758;BMP180;54562;47.620;18.786;2022-10-23T01:59:48;98970.80;;;8.90
67758;BMP180;54562;47.620;18.786;2022-10-23T02:02:57;98969.80;;;8.92
67758;BMP180;54562;47.620;18.786;2022-10-23T02:06:09;98969.40;;;9.00
67758;BMP180;54562;47.620;18.786;2022-10-23T02:09:17;98967.60;;;9.00
67758;BMP180;54562;47.620;18.786;2022-10-23T02:12:34;98965.20;;;9.00
67758;BMP180;54562;47.620;18.786;2022-10-23T02:15:49;98964.80;;;9.00
67758;BMP180;54562;47.620;18.786;2022-10-23T02:19:11;98959.00;;;9.00
67758;BMP180;54562;47.620;18.786;2022-10-23T02:22:28;98957.80;;;9.02
67758;BMP180;54562;47.620;18.786;2022-10-23T02:25:45;98959.80;;;9.10
67758;BMP180;54562;47.620;18.786;2022-10-23T02:29:00;98958.00;;;9.10
67758;BMP180;54562;47.620;18.786;2022-10-23T02:32:18;98957.80;;;9.10
67758;BMP180;54562;47.620;18.786;2022-10-23T02:35:27;98959.60;;;9.10
67758;BMP180;54562;47.620;18.786;2022-10-23T02:38:39;98962.40;;;9.10
67758;BMP180;54562;47.620;18.786;2022-10-23T02:41:52;98960.60;;;9.10
67758;BMP180;54562;47.620;18.786;2022-10-23T02:48:15;98972.00;;;9.10
67758;BMP180;54562;47.620;18.786;2022-10-23T02:51:32;98969.60;;;9.10
67758;BMP180;54562;47.620;18.786;2022-10-23T02:55:09;98974.40;;;9.10
67758;BMP180;54562;47.620;18.786;2022-10-23T02:58:28;98976.20;;;9.10
67758;BMP180;54562;47.620;18.786;2022-10-23T03:01:47;98984.60;;;9.08
67758;BMP180;54562;47.620;18.786;2022-10-23T03:04:57;98994.60;;;9.00
67758;BMP180;54562;47.620;18.786;2022-10-23T03:08:08;98996.20;;;9.02
67758;BMP180;54562;47.620;18.786;2022-10-23T03:11:16;98993.20;;;9.00
67758;BMP180;54562;47.620;18.786;2022-10-23T03:14:25;98998.40;;;9.00
67758;BMP180;54562;47.620;18.786;2022-10-23T03:17:33;99002.40;;;9.00
67758;BMP180;54562;47.620;18.786;2022-10-23T03:20:41;98998.40;;;8.96
67758;BMP180;54562;47.620;18.786;2022-10-23T03:23:48;98994.80;;;8.90
67758;BMP180;54562;47.620;18.786;2022-10-23T03:30:07;99005.20;;;8.80
67758;BMP180;54562;47.620;18.786;2022-10-23T03:33:16;99005.40;;;8.80
67758;BMP180;54562;47.620;18.786;2022-10-23T03:36:23;99002.40;;;8.70
67758;BMP180;54562;47.620;18.786;2022-10-23T03:39:32;99001.80;;;8.70
67758;BMP180;54562;47.620;18.786;2022-10-23T03:42:40;99000.00;;;8.70
67758;BMP180;54562;47.620;18.786;2022-10-23T03:45:48;99005.20;;;8.70
67758;BMP180;54562;47.620;18.786;2022-10-23T03:48:56;99003.80;;;8.70
67758;BMP180;54562;47.620;18.786;2022-10-23T03:52:05;99002.40;;;8.70
67758;BMP180;54562;47.620;18.786;2022-10-23T03:55:15;99002.80;;;8.70
67758;BMP180;54562;47.620;18.786;2022-10-23T03:58:23;99002.60;;;8.60
67758;BMP180;54562;47.620;18.786;2022-10-23T04:01:30;99006.80;;;8.60
67758;BMP180;54562;47.620;18.786;2022-10-23T04:04:38;99005.00;;;8.50
67758;BMP180;54562;47.620;18.786;2022-10-23T04:07:46;99008.80;;;8.50
67758;BMP180;54562;47.620;18.786;2022-10-23T04:10:55;99004.40;;;8.40
67758;BMP180;54562;47.620;18.786;2022-10-23T04:14:03;99004.60;;;8.40
67758;BMP180;54562;47.620;18.786;2022-10-23T04:17:11;99000.80;;;8.40
67758;BMP180;54562;47.620;18.786;2022-10-23T04:20:19;99000.60;;;8.46
67758;BMP180;54562;47.620;18.786;2022-10-23T04:23:28;98999.20;;;8.50
67758;BMP180;54562;47.620;18.786;2022-10-23T04:26:35;98993.20;;;8.50
67758;BMP180;54562;47.620;18.786;2022-10-23T04:29:43;98992.20;;;8.56
67758;BMP180;54562;47.620;18.786;2022-10-23T04:32:53;98987.60;;;8.50
67758;BMP180;54562;47.620;18.786;2022-10-23T04:36:01;98985.40;;;8.40
67758;BMP180;54562;47.620;18.786;2022-10-23T04:39:09;98991.20;;;8.40
67758;BMP180;54562;47.620;18.786;2022-10-23T04:42:18;98995.40;;;8.44
67758;BMP180;54562;47.620;18.786;2022-10-23T04:45:26;98990.20;;;8.50
67758;BMP180;54562;47.620;18.786;2022-10-23T04:48:34;98984.80;;;8.50
67758;BMP180;54562;47.620;18.786;2022-10-23T04:51:42;98995.20;;;8.60
67758;BMP180;54562;47.620;18.786;2022-10-23T04:54:50;98997.20;;;8.60
67758;BMP180;54562;47.620;18.786;2022-10-23T04:57:58;99007.60;;;8.60
67758;BMP180;54562;47.620;18.786;2022-10-23T05:01:06;99002.20;;;8.60
67758;BMP180;54562;47.620;18.786;2022-10-23T05:04:14;99004.40;;;8.60
67758;BMP180;54562;47.620;18.786;2022-10-23T05:07:22;99010.40;;;8.58
67758;BMP180;54562;47.620;18.786;2022-10-23T05:10:30;99014.40;;;8.52
67758;BMP180;54562;47.620;18.786;2022-10-23T05:13:38;99015.40;;;8.50
67758;BMP180;54562;47.620;18.786;2022-10-23T05:16:51;99013.80;;;8.50
67758;BMP180;54562;47.620;18.786;2022-10-23T05:20:04;99016.00;;;8.50
67758;BMP180;54562;47.620;18.786;2022-10-23T05:23:15;99019.60;;;8.50
67758;BMP180;54562;47.620;18.786;2022-10-23T05:26:25;99014.20;;;8.50
67758;BMP180;54562;47.620;18.786;2022-10-23T05:29:33;99012.60;;;8.50
67758;BMP180;54562;47.620;18.786;2022-10-23T05:32:41;99017.60;;;8.54
67758;BMP180;54562;47.620;18.786;2022-10-23T05:35:49;99023.00;;;8.60
67758;BMP180;54562;47.620;18.786;2022-10-23T05:38:58;99028.80;;;8.60
67758;BMP180;54562;47.620;18.786;2022-10-23T05:42:06;99035.40;;;8.60
67758;BMP180;54562;47.620;18.786;2022-10-23T05:45:14;99030.00;;;8.62
67758;BMP180;54562;47.620;18.786;2022-10-23T05:48:22;99030.80;;;8.60
67758;BMP180;54562;47.620;18.786;2022-10-23T05:51:41;99028.00;;;8.60
67758;BMP180;54562;47.620;18.786;2022-10-23T05:54:51;99035.00;;;8.60
67758;BMP180;54562;47.620;18.786;2022-10-23T05:58:00;99032.40;;;8.60
67758;BMP180;54562;47.620;18.786;2022-10-23T06:01:11;99030.60;;;8.70
67758;BMP180;54562;47.620;18.786;2022-10-23T06:04:19;99032.20;;;8.80
67758;BMP180;54562;47.620;18.786;2022-10-23T06:07:28;99041.00;;;8.94
67758;BMP180;54562;47.620;18.786;2022-10-23T06:10:41;99046.20;;;9.08
67758;BMP180;54562;47.620;18.786;2022-10-23T06:13:49;99041.80;;;9.18
67758;BMP180;54562;47.620;18.786;2022-10-23T06:16:57;99042.20;;;9.26
67758;BMP180;54562;47.620;18.786;2022-10-23T06:20:07;99043.40;;;9.30
67758;BMP180;54562;47.620;18.786;2022-10-23T06:23:13;99034.20;;;9.40
67758;BMP180;54562;47.620;18.786;2022-10-23T06:26:21;99040.80;;;9.50
67758;BMP180;54562;47.620;18.786;2022-10-23T06:29:29;99045.40;;;9.60
67758;BMP180;54562;47.620;18.786;2022-10-23T06:32:37;99056.60;;;9.80
67758;BMP180;54562;47.620;18.786;2022-10-23T06:35:46;99053.00;;;9.92
67758;BMP180;54562;47.620;18.786;2022-10-23T06:38:54;99067.20;;;10.10
67758;BMP180;54562;47.620;18.786;2022-10-23T06:42:03;99080.40;;;10.20
67758;BMP180;54562;47.620;18.786;2022-10-23T06:45:11;99086.60;;;10.26
67758;BMP180;54562;47.620;18.786;2022-10-23T06:48:19;99090.20;;;10.20
67758;BMP180;54562;47.620;18.786;2022-10-23T06:51:27;99092.80;;;10.00
67758;BMP180;54562;47.620;18.786;2022-10-23T06:54:35;99096.60;;;9.80
67758;BMP180;54562;47.620;18.786;2022-10-23T06:57:43;99091.20;;;9.50
67758;BMP180;54562;47.620;18.786;2022-10-23T07:00:52;99091.80;;;9.30
67758;BMP180;54562;47.620;18.786;2022-10-23T07:04:00;99096.40;;;9.20
67758;BMP180;54562;47.620;18.786;2022-10-23T07:07:08;99096.60;;;9.20
67758;BMP180;54562;47.620;18.786;2022-10-23T07:10:16;99100.20;;;9.10
67758;BMP180;54562;47.620;18.786;2022-10-23T07:13:25;99104.40;;;9.20
67758;BMP180;54562;47.620;18.786;2022-10-23T07:16:33;99109.20;;;9.30
67758;BMP180;54562;47.620;18.786;2022-10-23T07:19:41;99107.80;;;9.40
67758;BMP180;54562;47.620;18.786;2022-10-23T07:22:54;99111.60;;;9.58
67758;BMP180;54562;47.620;18.786;2022-10-23T07:26:08;99116.80;;;9.70
67758;BMP180;54562;47.620;18.786;2022-10-23T07:29:16;99118.40;;;9.90
67758;BMP180;54562;47.620;18.786;2022-10-23T07:32:24;99115.00;;;10.06
67758;BMP180;54562;47.620;18.786;2022-10-23T07:35:33;99121.20;;;10.20
67758;BMP180;54562;47.620;18.786;2022-10-23T07:38:44;99113.00;;;10.30
67758;BMP180;54562;47.620;18.786;2022-10-23T07:41:53;99104.40;;;10.40
67758;BMP180;54562;47.620;18.786;2022-10-23T07:45:01;99108.60;;;10.60
67758;BMP180;54562;47.620;18.786;2022-10-23T07:48:09;99112.00;;;10.80
67758;BMP180;54562;47.620;18.786;2022-10-23T07:51:18;99111.80;;;11.00
67758;BMP180;54562;47.620;18.786;2022-10-23T07:54:25;99112.40;;;11.10
67758;BMP180;54562;47.620;18.786;2022-10-23T07:57:34;99107.40;;;11.30
67758;BMP180;54562;47.620;18.786;2022-10-23T08:00:42;99104.60;;;11.54
67758;BMP180;54562;47.620;18.786;2022-10-23T08:03:51;99102.40;;;11.78
67758;BMP180;54562;47.620;18.786;2022-10-23T08:06:58;99100.00;;;12.00
67758;BMP180;54562;47.620;18.786;2022-10-23T08:10:09;99093.00;;;12.20
67758;BMP180;54562;47.620;18.786;2022-10-23T08:13:16;99087.40;;;12.40
67758;BMP180;54562;47.620;18.786;2022-10-23T08:16:27;99081.60;;;12.60
67758;BMP180;54562;47.620;18.786;2022-10-23T08:19:35;99088.60;;;12.80
67758;BMP180;54562;47.620;18.786;2022-10-23T08:22:44;99082.40;;;12.90
67758;BMP180;54562;47.620;18.786;2022-10-23T08:25:59;99085.80;;;13.10
67758;BMP180;54562;47.620;18.786;2022-10-23T08:29:08;99083.20;;;13.30
67758;BMP180;54562;47.620;18.786;2022-10-23T08:32:16;99081.00;;;13.40
67758;BMP180;54562;47.620;18.786;2022-10-23T08:35:24;99086.20;;;13.60
67758;BMP180;54562;47.620;18.786;2022-10-23T08:38:32;99085.60;;;13.78
67758;BMP180;54562;47.620;18.786;2022-10-23T08:41:46;99080.00;;;13.90
67758;BMP180;54562;47.620;18.786;2022-10-23T08:45:04;99080.20;;;14.10
67758;BMP180;54562;47.620;18.786;2022-10-23T08:48:22;99081.40;;;14.30
67758;BMP180;54562;47.620;18.786;2022-10-23T08:51:40;99078.40;;;14.50
67758;BMP180;54562;47.620;18.786;2022-10-23T08:54:58;99069.80;;;14.66
67758;BMP180;54562;47.620;18.786;2022-10-23T08:58:11;99073.00;;;14.80
67758;BMP180;54562;47.620;18.786;2022-10-23T09:01:39;99067.00;;;15.00
67758;BMP180;54562;47.620;18.786;2022-10-23T09:04:52;99073.40;;;15.20
67758;BMP180;54562;47.620;18.786;2022-10-23T09:08:20;99074.80;;;15.40
67758;BMP180;54562;47.620;18.786;2022-10-23T09:11:38;99076.80;;;15.60
67758;BMP180;54562;47.620;18.786;2022-10-23T09:15:17;99087.60;;;15.70
67758;BMP180;54562;47.620;18.786;2022-10-23T09:18:26;99091.80;;;15.90
67758;BMP180;54562;47.620;18.786;2022-10-23T09:21:36;99084.60;;;16.02
67758;BMP180;54562;47.620;18.786;2022-10-23T09:24:45;99092.80;;;16.20
67758;BMP180;54562;47.620;18.786;2022-10-23T09:28:02;99093.20;;;16.30
67758;BMP180;54562;47.620;18.786;2022-10-23T09:31:13;99092.80;;;16.36
67758;BMP180;54562;47.620;18.786;2022-10-23T09:34:24;99091.00;;;16.50
67758;BMP180;54562;47.620;18.786;2022-10-23T09:37:34;99089.00;;;16.60
67758;BMP180;54562;47.620;18.786;2022-10-23T09:40:52;99090.20;;;16.70
67758;BMP180;54562;47.620;18.786;2022-10-23T09:44:16;99093.20;;;16.80
67758;BMP180;54562;47.620;18.786;2022-10-23T09:47:27;99092.00;;;16.90
67758;BMP180;54562;47.620;18.786;2022-10-23T09:50:35;99085.80;;;16.98
67758;BMP180;54562;47.620;18.786;2022-10-23T09:53:53;99089.60;;;17.10
67758;BMP180;54562;47.620;18.786;2022-10-23T10:00:22;99087.80;;;17.38
67758;BMP180;54562;47.620;18.786;2022-10-23T10:03:31;99087.40;;;17.40
67758;BMP180;54562;47.620;18.786;2022-10-23T10:06:39;99080.00;;;17.40
67758;BMP180;54562;47.620;18.786;2022-10-23T10:09:53;99077.40;;;17.50
67758;BMP180;54562;47.620;18.786;2022-10-23T10:16:18;99064.60;;;17.60
67758;BMP180;54562;47.620;18.786;2022-10-23T10:19:46;99060.20;;;17.70
67758;BMP180;54562;47.620;18.786;2022-10-23T10:23:04;99058.40;;;17.90
67758;BMP180;54562;47.620;18.786;2022-10-23T10:26:27;99049.00;;;18.10
67758;BMP180;54562;47.620;18.786;2022-10-23T10:29:57;99051.40;;;18.30
67758;BMP180;54562;47.620;18.786;2022-10-23T10:33:16;99041.00;;;18.50
67758;BMP180;54562;47.620;18.786;2022-10-23T10:36:48;99052.20;;;18.60
67758;BMP180;54562;47.620;18.786;2022-10-23T10:40:05;99050.40;;;18.70
67758;BMP180;54562;47.620;18.786;2022-10-23T10:43:26;99043.60;;;18.86
67758;BMP180;54562;47.620;18.786;2022-10-23T10:46:45;99043.40;;;18.82
67758;BMP180;54562;47.620;18.786;2022-10-23T10:50:11;99032.20;;;18.90
67758;BMP180;54562;47.620;18.786;2022-10-23T10:53:30;99025.40;;;18.90
67758;BMP180;54562;47.620;18.786;2022-10-23T10:56:43;99029.40;;;18.96
67758;BMP180;54562;47.620;18.786;2022-10-23T10:59:54;99024.60;;;18.96
67758;BMP180;54562;47.620;18.786;2022-10-23T11:03:16;99009.20;;;18.92
67758;BMP180;54562;47.620;18.786;2022-10-23T11:06:34;99006.80;;;19.00
67758;BMP180;54562;47.620;18.786;2022-10-23T11:09:44;98999.80;;;19.10
67758;BMP180;54562;47.620;18.786;2022-10-23T11:12:53;98993.20;;;19.12
67758;BMP180;54562;47.620;18.786;2022-10-23T11:16:10;98997.00;;;19.20
67758;BMP180;54562;47.620;18.786;2022-10-23T11:19:25;98989.60;;;19.12
67758;BMP180;54562;47.620;18.786;2022-10-23T11:22:44;98991.00;;;19.00
67758;BMP180;54562;47.620;18.786;2022-10-23T11:26:12;98990.60;;;19.10
67758;BMP180;54562;47.620;18.786;2022-10-23T11:29:53;98994.00;;;19.00
67758;BMP180;54562;47.620;18.786;2022-10-23T11:37:25;98995.80;;;19.00
67758;BMP180;54562;47.620;18.786;2022-10-23T11:40:34;98995.20;;;19.00
67758;BMP180;54562;47.620;18.786;2022-10-23T11:43:53;98987.60;;;19.00
67758;BMP180;54562;47.620;18.786;2022-10-23T11:50:49;98978.40;;;18.88
67758;BMP180;54562;47.620;18.786;2022-10-23T11:57:14;98984.40;;;19.00
67758;BMP180;54562;47.620;18.786;2022-10-23T12:00:29;98976.40;;;18.90
67758;BMP180;54562;47.620;18.786;2022-10-23T12:03:56;98980.60;;;18.90
67758;BMP180;54562;47.620;18.786;2022-10-23T12:07:23;98974.40;;;18.82
67758;BMP180;54562;47.620;18.786;2022-10-23T12:10:34;98968.60;;;18.80
67758;BMP180;54562;47.620;18.786;2022-10-23T12:13:50;98963.40;;;18.70
67758;BMP180;54562;47.620;18.786;2022-10-23T12:16:58;98957.00;;;18.62
67758;BMP180;54562;47.620;18.786;2022-10-23T12:20:24;98955.80;;;18.60
67758;BMP180;54562;47.620;18.786;2022-10-23T12:24:05;98950.00;;;18.60
67758;BMP180;54562;47.620;18.786;2022-10-23T12:27:30;98944.80;;;18.60
67758;BMP180;54562;47.620;18.786;2022-10-23T12:30:46;98941.00;;;18.50
67758;BMP180;54562;47.620;18.786;2022-10-23T12:34:17;98940.40;;;18.50
67758;BMP180;54562;47.620;18.786;2022-10-23T12:41:14;98937.00;;;18.56
67758;BMP180;54562;47.620;18.786;2022-10-23T12:44:24;98926.80;;;18.70
67758;BMP180;54562;47.620;18.786;2022-10-23T12:47:34;98927.00;;;18.70
67758;BMP180;54562;47.620;18.786;2022-10-23T12:50:53;98925.60;;;18.70
67758;BMP180;54562;47.620;18.786;2022-10-23T12:54:02;98926.80;;;18.42
67758;BMP180;54562;47.620;18.786;2022-10-23T12:57:25;98925.80;;;18.10
67758;BMP180;54562;47.620;18.786;2022-10-23T13:00:33;98925.80;;;17.80
67758;BMP180;54562;47.620;18.786;2022-10-23T13:03:42;98925.40;;;17.60
67758;BMP180;54562;47.620;18.786;2022-10-23T13:06:52;98921.40;;;17.40
67758;BMP180;54562;47.620;18.786;2022-10-23T13:13:13;98913.80;;;17.20
67758;BMP180;54562;47.620;18.786;2022-10-23T13:16:27;98905.20;;;17.20
67758;BMP180;54562;47.620;18.786;2022-10-23T13:19:38;98900.60;;;17.18
67758;BMP180;54562;47.620;18.786;2022-10-23T13:22:47;98895.60;;;17.02
67758;BMP180;54562;47.620;18.786;2022-10-23T13:26:03;98898.00;;;16.92
67758;BMP180;54562;47.620;18.786;2022-10-23T13:29:23;98901.00;;;16.90
67758;BMP180;54562;47.620;18.786;2022-10-23T13:32:32;98895.00;;;16.90
67758;BMP180;54562;47.620;18.786;2022-10-23T13:35:40;98884.60;;;16.80
67758;BMP180;54562;47.620;18.786;2022-10-23T13:42:15;98883.60;;;16.64
67758;BMP180;54562;47.620;18.786;2022-10-23T13:45:34;98883.20;;;16.60
67758;BMP180;54562;47.620;18.786;2022-10-23T13:48:43;98878.80;;;16.60
67758;BMP180;54562;47.620;18.786;2022-10-23T13:51:54;98877.40;;;16.50
67758;BMP180;54562;47.620;18.786;2022-10-23T13:55:19;98872.60;;;16.60
67758;BMP180;54562;47.620;18.786;2022-10-23T13:58:27;98858.20;;;16.56
67758;BMP180;54562;47.620;18.786;2022-10-23T14:01:36;98860.20;;;16.50
67758;BMP180;54562;47.620;18.786;2022-10-23T14:04:45;98861.60;;;16.50
67758;BMP180;54562;47.620;18.786;2022-10-23T14:07:53;98859.80;;;16.40
67758;BMP180;54562;47.620;18.786;2022-10-23T14:11:01;98857.80;;;16.40
67758;BMP180;54562;47.620;18.786;2022-10-23T14:14:10;98853.40;;;16.34
67758;BMP180;54562;47.620;18.786;2022-10-23T14:17:19;98852.80;;;16.30
67758;BMP180;54562;47.620;18.786;2022-10-23T14:20:28;98848.20;;;16.20
67758;BMP180;54562;47.620;18.786;2022-10-23T14:23:36;98851.40;;;16.20
67758;BMP180;54562;47.620;18.786;2022-10-23T14:26:45;98855.80;;;16.20
67758;BMP180;54562;47.620;18.786;2022-10-23T14:29:54;98859.00;;;16.10
67758;BMP180;54562;47.620;18.786;2022-10-23T14:33:03;98848.80;;;16.10
67758;BMP180;54562;47.620;18.786;2022-10-23T14:36:12;98845.80;;;16.00
67758;BMP180;54562;47.620;18.786;2022-10-23T14:39:22;98839.40;;;16.00
67758;BMP180;54562;47.620;18.786;2022-10-23T14:42:30;98835.00;;;15.90
67758;BMP180;54562;47.620;18.786;2022-10-23T14:45:40;98831.60;;;15.82
67758;BMP180;54562;47.620;18.786;2022-10-23T14:48:48;98830.20;;;15.80
67758;BMP180;54562;47.620;18.786;2022-10-23T14:52:06;98835.20;;;15.76
67758;BMP180;54562;47.620;18.786;2022-10-23T14:55:15;98838.60;;;15.70
67758;BMP180;54562;47.620;18.786;2022-10-23T14:58:24;98843.00;;;15.70
67758;BMP180;54562;47.620;18.786;2022-10-23T15:01:34;98835.20;;;15.60
67758;BMP180;54562;47.620;18.786;2022-10-23T15:04:50;98829.80;;;15.60
67758;BMP180;54562;47.620;18.786;2022-10-23T15:07:59;98824.80;;;15.60
67758;BMP180;54562;47.620;18.786;2022-10-23T15:11:07;98819.60;;;15.60
67758;BMP180;54562;47.620;18.786;2022-10-23T15:14:18;98815.00;;;15.60
67758;BMP180;54562;47.620;18.786;2022-10-23T15:17:26;98815.80;;;15.60
67758;BMP180;54562;47.620;18.786;2022-10-23T15:20:34;98814.00;;;15.60
67758;BMP180;54562;47.620;18.786;2022-10-23T15:23:44;98810.20;;;15.60
67758;BMP180;54562;47.620;18.786;2022-10-23T15:26:52;98813.60;;;15.60
67758;BMP180;54562;47.620;18.786;2022-10-23T15:30:00;98815.60;;;15.62
67758;BMP180;54562;47.620;18.786;2022-10-23T15:33:09;98823.00;;;15.66
67758;BMP180;54562;47.620;18.786;2022-10-23T15:36:25;98822.80;;;15.70
67758;BMP180;54562;47.620;18.786;2022-10-23T15:39:34;98821.40;;;15.70
67758;BMP180;54562;47.620;18.786;2022-10-23T15:42:43;98820.80;;;15.70
67758;BMP180;54562;47.620;18.786;2022-10-23T15:45:51;98823.80;;;15.70
67758;BMP180;54562;47.620;18.786;2022-10-23T15:48:59;98822.40;;;15.70
67758;BMP180;54562;47.620;18.786;2022-10-23T15:52:08;98825.80;;;15.70
67758;BMP180;54562;47.620;18.786;2022-10-23T15:55:23;98835.00;;;15.70
67758;BMP180;54562;47.620;18.786;2022-10-23T15:58:29;98831.00;;;15.70
67758;BMP180;54562;47.620;18.786;2022-10-23T16:01:37;98833.40;;;15.64
67758;BMP180;54562;47.620;18.786;2022-10-23T16:04:46;98839.60;;;15.60
67758;BMP180;54562;47.620;18.786;2022-10-23T16:07:54;98841.40;;;15.60
67758;BMP180;54562;47.620;18.786;2022-10-23T16:11:02;98845.80;;;15.60
67758;BMP180;54562;47.620;18.786;2022-10-23T16:14:16;98851.20;;;15.60
67758;BMP180;54562;47.620;18.786;2022-10-23T16:17:24;98847.60;;;15.60
67758;BMP180;54562;47.620;18.786;2022-10-23T16:20:32;98849.60;;;15.60
67758;BMP180;54562;47.620;18.786;2022-10-23T16:23:40;98857.80;;;15.60
67758;BMP180;54562;47.620;18.786;2022-10-23T16:26:49;98858.80;;;15.58
67758;BMP180;54562;47.620;18.786;2022-10-23T16:29:57;98860.00;;;15.52
67758;BMP180;54562;47.620;18.786;2022-10-23T16:33:07;98852.20;;;15.50
67758;BMP180;54562;47.620;18.786;2022-10-23T16:36:18;98855.20;;;15.50
67758;BMP180;54562;47.620;18.786;2022-10-23T16:39:26;98854.00;;;15.50
67758;BMP180;54562;47.620;18.786;2022-10-23T16:42:36;98846.40;;;15.50
67758;BMP180;54562;47.620;18.786;2022-10-23T16:45:45;98850.80;;;15.40
67758;BMP180;54562;47.620;18.786;2022-10-23T16:48:54;98870.40;;;15.40
67758;BMP180;54562;47.620;18.786;2022-10-23T16:52:02;98870.40;;;15.40
67758;BMP180;54562;47.620;18.786;2022-10-23T16:55:11;98868.20;;;15.40
67758;BMP180;54562;47.620;18.786;2022-10-23T16:58:19;98878.20;;;15.40
67758;BMP180;54562;47.620;18.786;2022-10-23T17:01:29;98882.60;;;15.36
67758;BMP180;54562;47.620;18.786;2022-10-23T17:04:39;98884.20;;;15.36
67758;BMP180;54562;47.620;18.786;2022-10-23T17:07:46;98879.40;;;15.30
67758;BMP180;54562;47.620;18.786;2022-10-23T17:11:08;98871.80;;;15.30
67758;BMP180;54562;47.620;18.786;2022-10-23T17:14:20;98863.00;;;15.30
67758;BMP180;54562;47.620;18.786;2022-10-23T17:17:33;98866.20;;;15.20
67758;BMP180;54562;47.620;18.786;2022-10-23T17:20:42;98862.60;;;15.20
67758;BMP180;54562;47.620;18.786;2022-10-23T17:23:51;98863.40;;;15.20
67758;BMP180;54562;47.620;18.786;2022-10-23T17:26:59;98867.40;;;15.20
67758;BMP180;54562;47.620;18.786;2022-10-23T17:30:10;98858.20;;;15.20
67758;BMP180;54562;47.620;18.786;2022-10-23T17:33:19;98863.20;;;15.16
67758;BMP180;54562;47.620;18.786;2022-10-23T17:36:29;98856.80;;;15.10
67758;BMP180;54562;47.620;18.786;2022-10-23T17:39:40;98860.20;;;15.14
67758;BMP180;54562;47.620;18.786;2022-10-23T17:42:49;98855.40;;;15.10
67758;BMP180;54562;47.620;18.786;2022-10-23T17:45:56;98849.40;;;15.10
67758;BMP180;54562;47.620;18.786;2022-10-23T17:49:05;98849.80;;;15.10
67758;BMP180;54562;47.620;18.786;2022-10-23T17:52:14;98853.40;;;15.10
67758;BMP180;54562;47.620;18.786;2022-10-23T17:55:22;98861.20;;;15.10
67758;BMP180;54562;47.620;18.786;2022-10-23T17:58:31;98858.00;;;15.10
67758;BMP180;54562;47.620;18.786;2022-10-23T18:01:40;98863.80;;;15.10
67758;BMP180;54562;47.620;18.786;2022-10-23T18:04:49;98860.40;;;15.04
67758;BMP180;54562;47.620;18.786;2022-10-23T18:07:57;98860.20;;;15.02
67758;BMP180;54562;47.620;18.786;2022-10-23T18:11:06;98854.60;;;15.00
67758;BMP180;54562;47.620;18.786;2022-10-23T18:14:16;98856.40;;;15.00
67758;BMP180;54562;47.620;18.786;2022-10-23T18:17:26;98857.60;;;15.00
67758;BMP180;54562;47.620;18.786;2022-10-23T18:20:38;98850.20;;;14.90
67758;BMP180;54562;47.620;18.786;2022-10-23T18:23:47;98855.40;;;14.90
67758;BMP180;54562;47.620;18.786;2022-10-23T18:26:56;98859.60;;;14.90
67758;BMP180;54562;47.620;18.786;2022-10-23T18:30:05;98846.40;;;14.90
67758;BMP180;54562;47.620;18.786;2022-10-23T18:33:14;98851.00;;;14.80
67758;BMP180;54562;47.620;18.786;2022-10-23T18:36:26;98842.00;;;14.80
67758;BMP180;54562;47.620;18.786;2022-10-23T18:39:34;98841.20;;;14.80
67758;BMP180;54562;47.620;18.786;2022-10-23T18:42:43;98845.60;;;14.80
67758;BMP180;54562;47.620;18.786;2022-10-23T18:45:51;98850.60;;;14.78
67758;BMP180;54562;47.620;18.786;2022-10-23T18:52:10;98850.40;;;14.70
67758;BMP180;54562;47.620;18.786;2022-10-23T18:55:18;98852.60;;;14.70
67758;BMP180;54562;47.620;18.786;2022-10-23T18:58:26;98852.40;;;14.70